sensor_id;sensor_type;location;lat;lon;timestamp;P1;durP1;ratioP1;P2;durP2;ratioP2
56427;SDS011;42331;53.578;9.760;2023-04-25T00:01:26;17.60;;;4.13;;
56427;SDS011;42331;53.578;9.760;2023-04-25T00:03:57;16.45;;;4.80;;
56427;SDS011;42331;53.578;9.760;2023-04-25T00:06:28;17.85;;;4.72;;
56427;SDS011;42331;53.578;9.760;2023-04-25T00:09:05;23.70;;;5.50;;
56427;SDS011;42331;53.578;9.760;2023-04-25T00:11:41;13.88;;;4.95;;
56427;SDS011;42331;53.578;9.760;2023-04-25T00:14:11;18.83;;;3.60;;
56427;SDS011;42331;53.578;9.760;2023-04-25T00:16:42;19.17;;;3.58;;
56427;SDS011;42331;53.578;9.760;2023-04-25T00:19:14;17.17;;;3.95;;
56427;SDS011;42331;53.578;9.760;2023-04-25T00:21:44;19.88;;;4.15;;
56427;SDS011;42331;53.578;9.760;2023-04-25T00:24:16;17.65;;;3.70;;
56427;SDS011;42331;53.578;9.760;2023-04-25T00:26:47;19.92;;;3.45;;
56427;SDS011;42331;53.578;9.760;2023-04-25T00:29:17;18.70;;;3.92;;
56427;SDS011;42331;53.578;9.760;2023-04-25T00:31:48;19.58;;;3.67;;
56427;SDS011;42331;53.578;9.760;2023-04-25T00:34:19;25.30;;;3.40;;
56427;SDS011;42331;53.578;9.760;2023-04-25T00:36:54;20.25;;;3.50;;
56427;SDS011;42331;53.578;9.760;2023-04-25T00:39:25;23.63;;;4.07;;
56427;SDS011;42331;53.578;9.760;2023-04-25T00:42:03;22.95;;;4.07;;
56427;SDS011;42331;53.578;9.760;2023-04-25T00:44:35;19.40;;;3.22;;
56427;SDS011;42331;53.578;9.760;2023-04-25T00:47:07;19.52;;;3.10;;
56427;SDS011;42331;53.578;9.760;2023-04-25T00:49:38;16.90;;;3.57;;
56427;SDS011;42331;53.578;9.760;2023-04-25T00:52:09;23.23;;;3.28;;
56427;SDS011;42331;53.578;9.760;2023-04-25T00:54:40;19.42;;;3.13;;
56427;SDS011;42331;53.578;9.760;2023-04-25T00:57:11;15.05;;;2.70;;
56427;SDS011;42331;53.578;9.760;2023-04-25T00:59:43;16.38;;;4.05;;
56427;SDS011;42331;53.578;9.760;2023-04-25T01:02:16;23.85;;;3.70;;
56427;SDS011;42331;53.578;9.760;2023-04-25T01:04:50;33.22;;;4.95;;
56427;SDS011;42331;53.578;9.760;2023-04-25T01:07:20;29.98;;;4.43;;
56427;SDS011;42331;53.578;9.760;2023-04-25T01:09:51;25.75;;;3.75;;
56427;SDS011;42331;53.578;9.760;2023-04-25T01:12:23;12.05;;;2.42;;
56427;SDS011;42331;53.578;9.760;2023-04-25T01:14:54;34.15;;;4.75;;
56427;SDS011;42331;53.578;9.760;2023-04-25T01:17:25;18.98;;;3.17;;
56427;SDS011;42331;53.578;9.760;2023-04-25T01:19:55;23.15;;;4.72;;
56427;SDS011;42331;53.578;9.760;2023-04-25T01:22:26;29.75;;;4.18;;
56427;SDS011;42331;53.578;9.760;2023-04-25T01:24:57;27.00;;;4.07;;
56427;SDS011;42331;53.578;9.760;2023-04-25T01:27:28;21.48;;;3.72;;
56427;SDS011;42331;53.578;9.760;2023-04-25T01:30:00;28.38;;;4.30;;
56427;SDS011;42331;53.578;9.760;2023-04-25T01:32:31;32.92;;;5.45;;
56427;SDS011;42331;53.578;9.760;2023-04-25T01:35:09;33.53;;;5.18;;
56427;SDS011;42331;53.578;9.760;2023-04-25T01:37:41;27.92;;;4.47;;
56427;SDS011;42331;53.578;9.760;2023-04-25T01:40:13;24.77;;;4.10;;
56427;SDS011;42331;53.578;9.760;2023-04-25T01:42:44;33.25;;;4.20;;
56427;SDS011;42331;53.578;9.760;2023-04-25T01:45:15;25.52;;;4.75;;
56427;SDS011;42331;53.578;9.760;2023-04-25T01:47:46;28.42;;;4.43;;
56427;SDS011;42331;53.578;9.760;2023-04-25T01:50:19;31.65;;;4.85;;
56427;SDS011;42331;53.578;9.760;2023-04-25T01:52:50;24.60;;;4.23;;
56427;SDS011;42331;53.578;9.760;2023-04-25T01:55:21;22.17;;;4.35;;
56427;SDS011;42331;53.578;9.760;2023-04-25T01:57:51;26.75;;;4.05;;
56427;SDS011;42331;53.578;9.760;2023-04-25T02:00:22;23.15;;;4.18;;
56427;SDS011;42331;53.578;9.760;2023-04-25T02:02:53;24.65;;;3.97;;
56427;SDS011;42331;53.578;9.760;2023-04-25T02:05:27;23.80;;;3.38;;
56427;SDS011;42331;53.578;9.760;2023-04-25T02:07:58;30.80;;;3.75;;
56427;SDS011;42331;53.578;9.760;2023-04-25T02:10:29;22.88;;;3.58;;
56427;SDS011;42331;53.578;9.760;2023-04-25T02:13:00;26.95;;;4.53;;
56427;SDS011;42331;53.578;9.760;2023-04-25T02:15:31;32.72;;;4.30;;
56427;SDS011;42331;53.578;9.760;2023-04-25T02:18:02;26.10;;;3.20;;
56427;SDS011;42331;53.578;9.760;2023-04-25T02:20:36;21.90;;;3.40;;
56427;SDS011;42331;53.578;9.760;2023-04-25T02:23:07;22.13;;;3.78;;
56427;SDS011;42331;53.578;9.760;2023-04-25T02:25:37;17.95;;;3.70;;
56427;SDS011;42331;53.578;9.760;2023-04-25T02:28:08;13.27;;;2.50;;
56427;SDS011;42331;53.578;9.760;2023-04-25T02:30:39;22.27;;;3.40;;
56427;SDS011;42331;53.578;9.760;2023-04-25T02:33:10;17.40;;;3.08;;
56427;SDS011;42331;53.578;9.760;2023-04-25T02:35:40;19.27;;;3.10;;
56427;SDS011;42331;53.578;9.760;2023-04-25T02:38:11;19.38;;;3.13;;
56427;SDS011;42331;53.578;9.760;2023-04-25T02:40:41;24.02;;;3.40;;
56427;SDS011;42331;53.578;9.760;2023-04-25T02:43:12;19.95;;;3.65;;
56427;SDS011;42331;53.578;9.760;2023-04-25T02:45:43;26.02;;;4.13;;
56427;SDS011;42331;53.578;9.760;2023-04-25T02:48:14;19.52;;;2.97;;
56427;SDS011;42331;53.578;9.760;2023-04-25T02:50:44;22.25;;;2.90;;
56427;SDS011;42331;53.578;9.760;2023-04-25T02:53:15;17.80;;;3.65;;
56427;SDS011;42331;53.578;9.760;2023-04-25T02:55:46;22.85;;;3.50;;
56427;SDS011;42331;53.578;9.760;2023-04-25T02:58:17;24.83;;;3.83;;
56427;SDS011;42331;53.578;9.760;2023-04-25T03:00:47;24.60;;;3.05;;
56427;SDS011;42331;53.578;9.760;2023-04-25T03:03:18;15.35;;;2.22;;
56427;SDS011;42331;53.578;9.760;2023-04-25T03:05:51;20.27;;;3.35;;
56427;SDS011;42331;53.578;9.760;2023-04-25T03:08:22;21.25;;;3.10;;
56427;SDS011;42331;53.578;9.760;2023-04-25T03:10:53;22.05;;;3.70;;
56427;SDS011;42331;53.578;9.760;2023-04-25T03:13:25;19.83;;;3.08;;
56427;SDS011;42331;53.578;9.760;2023-04-25T03:15:57;24.38;;;3.05;;
56427;SDS011;42331;53.578;9.760;2023-04-25T03:18:28;22.17;;;3.70;;
56427;SDS011;42331;53.578;9.760;2023-04-25T03:20:59;23.00;;;3.72;;
56427;SDS011;42331;53.578;9.760;2023-04-25T03:23:29;13.77;;;2.67;;
56427;SDS011;42331;53.578;9.760;2023-04-25T03:26:00;16.83;;;2.45;;
56427;SDS011;42331;53.578;9.760;2023-04-25T03:28:31;18.35;;;3.40;;
56427;SDS011;42331;53.578;9.760;2023-04-25T03:31:01;22.33;;;3.63;;
56427;SDS011;42331;53.578;9.760;2023-04-25T03:33:32;18.33;;;3.10;;
56427;SDS011;42331;53.578;9.760;2023-04-25T03:36:03;13.68;;;2.60;;
56427;SDS011;42331;53.578;9.760;2023-04-25T03:38:34;21.37;;;3.57;;
56427;SDS011;42331;53.578;9.760;2023-04-25T03:41:05;20.33;;;2.17;;
56427;SDS011;42331;53.578;9.760;2023-04-25T03:43:36;22.85;;;2.88;;
56427;SDS011;42331;53.578;9.760;2023-04-25T03:46:06;22.75;;;3.00;;
56427;SDS011;42331;53.578;9.760;2023-04-25T03:48:37;20.55;;;3.08;;
56427;SDS011;42331;53.578;9.760;2023-04-25T03:51:08;16.50;;;2.70;;
56427;SDS011;42331;53.578;9.760;2023-04-25T03:53:38;15.15;;;2.58;;
56427;SDS011;42331;53.578;9.760;2023-04-25T03:56:09;20.60;;;2.65;;
56427;SDS011;42331;53.578;9.760;2023-04-25T03:58:40;15.25;;;2.28;;
56427;SDS011;42331;53.578;9.760;2023-04-25T04:01:10;18.83;;;3.20;;
56427;SDS011;42331;53.578;9.760;2023-04-25T04:03:41;21.58;;;2.97;;
56427;SDS011;42331;53.578;9.760;2023-04-25T04:06:12;12.20;;;2.45;;
56427;SDS011;42331;53.578;9.760;2023-04-25T04:08:43;18.75;;;3.42;;
56427;SDS011;42331;53.578;9.760;2023-04-25T04:11:14;13.77;;;3.28;;
56427;SDS011;42331;53.578;9.760;2023-04-25T04:13:44;16.52;;;2.50;;
56427;SDS011;42331;53.578;9.760;2023-04-25T04:16:15;24.35;;;3.20;;
56427;SDS011;42331;53.578;9.760;2023-04-25T04:18:46;19.48;;;2.67;;
56427;SDS011;42331;53.578;9.760;2023-04-25T04:21:16;19.67;;;2.95;;
56427;SDS011;42331;53.578;9.760;2023-04-25T04:23:47;12.82;;;2.45;;
56427;SDS011;42331;53.578;9.760;2023-04-25T04:26:18;13.65;;;2.28;;
56427;SDS011;42331;53.578;9.760;2023-04-25T04:28:49;20.05;;;3.15;;
56427;SDS011;42331;53.578;9.760;2023-04-25T04:31:24;16.95;;;2.80;;
56427;SDS011;42331;53.578;9.760;2023-04-25T04:33:54;19.27;;;3.08;;
56427;SDS011;42331;53.578;9.760;2023-04-25T04:36:25;17.40;;;2.33;;
56427;SDS011;42331;53.578;9.760;2023-04-25T04:38:56;18.35;;;3.53;;
56427;SDS011;42331;53.578;9.760;2023-04-25T04:41:27;13.98;;;2.78;;
56427;SDS011;42331;53.578;9.760;2023-04-25T04:43:58;19.83;;;3.15;;
56427;SDS011;42331;53.578;9.760;2023-04-25T04:46:31;17.13;;;3.22;;
56427;SDS011;42331;53.578;9.760;2023-04-25T04:49:02;14.20;;;2.72;;
56427;SDS011;42331;53.578;9.760;2023-04-25T04:51:32;19.38;;;2.13;;
56427;SDS011;42331;53.578;9.760;2023-04-25T04:54:04;16.17;;;2.67;;
56427;SDS011;42331;53.578;9.760;2023-04-25T04:56:34;12.75;;;1.90;;
56427;SDS011;42331;53.578;9.760;2023-04-25T04:59:05;19.00;;;3.13;;
56427;SDS011;42331;53.578;9.760;2023-04-25T05:01:37;14.18;;;2.50;;
56427;SDS011;42331;53.578;9.760;2023-04-25T05:04:07;19.05;;;3.25;;
56427;SDS011;42331;53.578;9.760;2023-04-25T05:06:38;18.80;;;3.25;;
56427;SDS011;42331;53.578;9.760;2023-04-25T05:09:09;20.83;;;2.30;;
56427;SDS011;42331;53.578;9.760;2023-04-25T05:11:40;12.93;;;2.10;;
56427;SDS011;42331;53.578;9.760;2023-04-25T05:14:11;10.75;;;2.30;;
56427;SDS011;42331;53.578;9.760;2023-04-25T05:16:42;14.30;;;3.00;;
56427;SDS011;42331;53.578;9.760;2023-04-25T05:19:13;13.57;;;1.73;;
56427;SDS011;42331;53.578;9.760;2023-04-25T05:21:43;16.88;;;3.33;;
56427;SDS011;42331;53.578;9.760;2023-04-25T05:24:14;16.20;;;3.05;;
56427;SDS011;42331;53.578;9.760;2023-04-25T05:26:45;14.10;;;2.60;;
56427;SDS011;42331;53.578;9.760;2023-04-25T05:29:15;18.95;;;2.45;;
56427;SDS011;42331;53.578;9.760;2023-04-25T05:31:46;20.58;;;3.53;;
56427;SDS011;42331;53.578;9.760;2023-04-25T05:34:18;19.63;;;2.60;;
56427;SDS011;42331;53.578;9.760;2023-04-25T05:36:48;14.90;;;2.85;;
56427;SDS011;42331;53.578;9.760;2023-04-25T05:39:19;15.82;;;2.53;;
56427;SDS011;42331;53.578;9.760;2023-04-25T05:41:50;11.68;;;2.17;;
56427;SDS011;42331;53.578;9.760;2023-04-25T05:44:21;15.23;;;2.50;;
56427;SDS011;42331;53.578;9.760;2023-04-25T05:47:01;17.77;;;3.72;;
56427;SDS011;42331;53.578;9.760;2023-04-25T05:49:31;18.27;;;2.42;;
56427;SDS011;42331;53.578;9.760;2023-04-25T05:52:02;10.85;;;1.50;;
56427;SDS011;42331;53.578;9.760;2023-04-25T05:54:33;15.57;;;2.55;;
56427;SDS011;42331;53.578;9.760;2023-04-25T05:57:03;17.45;;;2.67;;
56427;SDS011;42331;53.578;9.760;2023-04-25T05:59:34;14.73;;;2.50;;
56427;SDS011;42331;53.578;9.760;2023-04-25T06:02:05;12.60;;;1.77;;
56427;SDS011;42331;53.578;9.760;2023-04-25T06:04:36;14.57;;;2.38;;
56427;SDS011;42331;53.578;9.760;2023-04-25T06:07:07;11.18;;;2.92;;
56427;SDS011;42331;53.578;9.760;2023-04-25T06:09:38;15.55;;;2.95;;
56427;SDS011;42331;53.578;9.760;2023-04-25T06:12:09;13.75;;;2.75;;
56427;SDS011;42331;53.578;9.760;2023-04-25T06:14:40;13.27;;;2.67;;
56427;SDS011;42331;53.578;9.760;2023-04-25T06:17:11;18.20;;;2.33;;
56427;SDS011;42331;53.578;9.760;2023-04-25T06:19:42;19.27;;;3.22;;
56427;SDS011;42331;53.578;9.760;2023-04-25T06:22:12;17.02;;;2.22;;
56427;SDS011;42331;53.578;9.760;2023-04-25T06:24:43;13.98;;;2.22;;
56427;SDS011;42331;53.578;9.760;2023-04-25T06:27:14;14.02;;;2.30;;
56427;SDS011;42331;53.578;9.760;2023-04-25T06:29:44;15.85;;;2.22;;
56427;SDS011;42331;53.578;9.760;2023-04-25T06:32:15;12.75;;;2.47;;
56427;SDS011;42331;53.578;9.760;2023-04-25T06:34:48;13.80;;;2.47;;
56427;SDS011;42331;53.578;9.760;2023-04-25T06:37:18;9.05;;;1.90;;
56427;SDS011;42331;53.578;9.760;2023-04-25T06:39:49;11.43;;;2.35;;
56427;SDS011;42331;53.578;9.760;2023-04-25T06:42:20;14.48;;;2.55;;
56427;SDS011;42331;53.578;9.760;2023-04-25T06:44:50;13.77;;;2.42;;
56427;SDS011;42331;53.578;9.760;2023-04-25T06:47:21;12.98;;;1.90;;
56427;SDS011;42331;53.578;9.760;2023-04-25T06:49:52;12.52;;;2.17;;
56427;SDS011;42331;53.578;9.760;2023-04-25T06:52:22;17.40;;;2.63;;
56427;SDS011;42331;53.578;9.760;2023-04-25T06:54:53;11.20;;;2.42;;
56427;SDS011;42331;53.578;9.760;2023-04-25T06:57:24;13.93;;;1.70;;
56427;SDS011;42331;53.578;9.760;2023-04-25T06:59:55;13.85;;;2.40;;
56427;SDS011;42331;53.578;9.760;2023-04-25T07:02:26;9.25;;;1.55;;
56427;SDS011;42331;53.578;9.760;2023-04-25T07:04:56;7.82;;;1.30;;
56427;SDS011;42331;53.578;9.760;2023-04-25T07:07:30;9.57;;;1.85;;
56427;SDS011;42331;53.578;9.760;2023-04-25T07:10:00;10.90;;;1.70;;
56427;SDS011;42331;53.578;9.760;2023-04-25T07:12:31;13.27;;;1.55;;
56427;SDS011;42331;53.578;9.760;2023-04-25T07:15:02;8.50;;;2.00;;
56427;SDS011;42331;53.578;9.760;2023-04-25T07:17:36;11.90;;;1.30;;
56427;SDS011;42331;53.578;9.760;2023-04-25T07:20:07;10.60;;;1.85;;
56427;SDS011;42331;53.578;9.760;2023-04-25T07:22:39;15.40;;;2.42;;
56427;SDS011;42331;53.578;9.760;2023-04-25T07:25:09;9.57;;;2.17;;
56427;SDS011;42331;53.578;9.760;2023-04-25T07:27:40;7.72;;;1.50;;
56427;SDS011;42331;53.578;9.760;2023-04-25T07:30:11;9.27;;;1.58;;
56427;SDS011;42331;53.578;9.760;2023-04-25T07:32:42;8.37;;;1.50;;
56427;SDS011;42331;53.578;9.760;2023-04-25T07:35:13;10.75;;;1.70;;
56427;SDS011;42331;53.578;9.760;2023-04-25T07:37:44;9.13;;;1.88;;
56427;SDS011;42331;53.578;9.760;2023-04-25T07:40:14;11.43;;;1.60;;
56427;SDS011;42331;53.578;9.760;2023-04-25T07:42:46;9.98;;;1.33;;
56427;SDS011;42331;53.578;9.760;2023-04-25T07:45:20;11.02;;;1.83;;
56427;SDS011;42331;53.578;9.760;2023-04-25T07:47:51;9.95;;;1.52;;
56427;SDS011;42331;53.578;9.760;2023-04-25T07:50:21;8.27;;;1.15;;
56427;SDS011;42331;53.578;9.760;2023-04-25T07:52:52;9.68;;;1.55;;
56427;SDS011;42331;53.578;9.760;2023-04-25T07:55:23;9.25;;;1.48;;
56427;SDS011;42331;53.578;9.760;2023-04-25T07:57:53;14.70;;;1.65;;
56427;SDS011;42331;53.578;9.760;2023-04-25T08:00:24;8.25;;;1.20;;
56427;SDS011;42331;53.578;9.760;2023-04-25T08:02:55;12.95;;;1.33;;
56427;SDS011;42331;53.578;9.760;2023-04-25T08:05:26;7.10;;;0.98;;
56427;SDS011;42331;53.578;9.760;2023-04-25T08:07:56;13.02;;;1.50;;
56427;SDS011;42331;53.578;9.760;2023-04-25T08:10:27;10.95;;;2.00;;
56427;SDS011;42331;53.578;9.760;2023-04-25T08:12:58;7.45;;;1.48;;
56427;SDS011;42331;53.578;9.760;2023-04-25T08:15:29;9.88;;;2.22;;
56427;SDS011;42331;53.578;9.760;2023-04-25T08:18:00;7.65;;;1.48;;
56427;SDS011;42331;53.578;9.760;2023-04-25T08:20:31;8.75;;;1.35;;
56427;SDS011;42331;53.578;9.760;2023-04-25T08:23:01;7.90;;;1.70;;
56427;SDS011;42331;53.578;9.760;2023-04-25T08:25:32;7.43;;;1.27;;
56427;SDS011;42331;53.578;9.760;2023-04-25T08:28:03;8.57;;;1.60;;
56427;SDS011;42331;53.578;9.760;2023-04-25T08:30:34;9.55;;;1.38;;
56427;SDS011;42331;53.578;9.760;2023-04-25T08:33:05;6.78;;;1.30;;
56427;SDS011;42331;53.578;9.760;2023-04-25T08:35:35;8.02;;;1.63;;
56427;SDS011;42331;53.578;9.760;2023-04-25T08:38:06;13.43;;;2.28;;
56427;SDS011;42331;53.578;9.760;2023-04-25T08:40:37;8.48;;;1.52;;
56427;SDS011;42331;53.578;9.760;2023-04-25T08:43:10;12.52;;;1.50;;
56427;SDS011;42331;53.578;9.760;2023-04-25T08:45:45;11.82;;;1.48;;
56427;SDS011;42331;53.578;9.760;2023-04-25T08:48:16;6.93;;;1.10;;
56427;SDS011;42331;53.578;9.760;2023-04-25T08:50:52;11.23;;;1.25;;
56427;SDS011;42331;53.578;9.760;2023-04-25T08:53:27;9.57;;;1.05;;
56427;SDS011;42331;53.578;9.760;2023-04-25T08:56:00;8.15;;;1.00;;
56427;SDS011;42331;53.578;9.760;2023-04-25T08:58:31;4.68;;;0.77;;
56427;SDS011;42331;53.578;9.760;2023-04-25T09:01:02;6.60;;;1.17;;
56427;SDS011;42331;53.578;9.760;2023-04-25T09:03:34;4.70;;;1.00;;
56427;SDS011;42331;53.578;9.760;2023-04-25T09:06:05;9.18;;;1.08;;
56427;SDS011;42331;53.578;9.760;2023-04-25T09:08:37;8.50;;;1.05;;
56427;SDS011;42331;53.578;9.760;2023-04-25T09:11:10;8.45;;;1.20;;
56427;SDS011;42331;53.578;9.760;2023-04-25T09:13:42;8.93;;;1.25;;
56427;SDS011;42331;53.578;9.760;2023-04-25T09:16:13;10.77;;;1.73;;
56427;SDS011;42331;53.578;9.760;2023-04-25T09:18:47;6.57;;;1.40;;
56427;SDS011;42331;53.578;9.760;2023-04-25T09:21:21;5.75;;;0.95;;
56427;SDS011;42331;53.578;9.760;2023-04-25T09:23:53;11.77;;;1.50;;
56427;SDS011;42331;53.578;9.760;2023-04-25T09:26:23;6.35;;;1.35;;
56427;SDS011;42331;53.578;9.760;2023-04-25T09:29:05;5.38;;;1.10;;
56427;SDS011;42331;53.578;9.760;2023-04-25T09:31:37;8.20;;;1.17;;
56427;SDS011;42331;53.578;9.760;2023-04-25T09:34:08;11.68;;;1.73;;
56427;SDS011;42331;53.578;9.760;2023-04-25T09:36:41;5.00;;;0.80;;
56427;SDS011;42331;53.578;9.760;2023-04-25T09:39:12;6.80;;;1.27;;
56427;SDS011;42331;53.578;9.760;2023-04-25T09:41:45;9.52;;;1.48;;
56427;SDS011;42331;53.578;9.760;2023-04-25T09:44:19;7.47;;;1.35;;
56427;SDS011;42331;53.578;9.760;2023-04-25T09:46:54;12.63;;;1.40;;
56427;SDS011;42331;53.578;9.760;2023-04-25T09:49:25;6.57;;;1.20;;
56427;SDS011;42331;53.578;9.760;2023-04-25T09:51:58;11.77;;;1.50;;
56427;SDS011;42331;53.578;9.760;2023-04-25T09:54:29;7.22;;;1.15;;
56427;SDS011;42331;53.578;9.760;2023-04-25T09:59:45;7.10;;;1.20;;
56427;SDS011;42331;53.578;9.760;2023-04-25T10:02:18;10.45;;;1.20;;
56427;SDS011;42331;53.578;9.760;2023-04-25T10:04:52;6.82;;;1.13;;
56427;SDS011;42331;53.578;9.760;2023-04-25T10:07:26;9.30;;;0.98;;
56427;SDS011;42331;53.578;9.760;2023-04-25T10:10:01;8.50;;;0.82;;
56427;SDS011;42331;53.578;9.760;2023-04-25T10:12:33;8.52;;;1.10;;
56427;SDS011;42331;53.578;9.760;2023-04-25T10:15:04;4.57;;;1.00;;
56427;SDS011;42331;53.578;9.760;2023-04-25T10:17:35;6.22;;;1.17;;
56427;SDS011;42331;53.578;9.760;2023-04-25T10:20:06;11.82;;;1.08;;
56427;SDS011;42331;53.578;9.760;2023-04-25T10:22:46;10.77;;;1.55;;
56427;SDS011;42331;53.578;9.760;2023-04-25T10:25:18;12.35;;;1.20;;
56427;SDS011;42331;53.578;9.760;2023-04-25T10:27:52;13.30;;;1.65;;
56427;SDS011;42331;53.578;9.760;2023-04-25T10:30:23;10.05;;;1.20;;
56427;SDS011;42331;53.578;9.760;2023-04-25T10:32:55;8.90;;;0.90;;
56427;SDS011;42331;53.578;9.760;2023-04-25T10:35:29;6.30;;;1.33;;
56427;SDS011;42331;53.578;9.760;2023-04-25T10:40:35;9.70;;;1.00;;
56427;SDS011;42331;53.578;9.760;2023-04-25T10:46:25;9.80;;;1.27;;
56427;SDS011;42331;53.578;9.760;2023-04-25T10:48:58;10.38;;;1.30;;
56427;SDS011;42331;53.578;9.760;2023-04-25T10:51:32;10.73;;;1.73;;
56427;SDS011;42331;53.578;9.760;2023-04-25T10:54:05;8.82;;;1.38;;
56427;SDS011;42331;53.578;9.760;2023-04-25T10:56:37;13.45;;;1.75;;
56427;SDS011;42331;53.578;9.760;2023-04-25T10:59:11;10.13;;;1.25;;
56427;SDS011;42331;53.578;9.760;2023-04-25T11:01:48;6.38;;;1.15;;
56427;SDS011;42331;53.578;9.760;2023-04-25T11:04:25;6.30;;;1.10;;
56427;SDS011;42331;53.578;9.760;2023-04-25T11:07:02;8.95;;;1.27;;
56427;SDS011;42331;53.578;9.760;2023-04-25T11:12:24;7.13;;;0.90;;
56427;SDS011;42331;53.578;9.760;2023-04-25T11:14:59;9.00;;;1.45;;
56427;SDS011;42331;53.578;9.760;2023-04-25T11:17:38;9.23;;;1.33;;
56427;SDS011;42331;53.578;9.760;2023-04-25T11:20:10;10.45;;;1.20;;
56427;SDS011;42331;53.578;9.760;2023-04-25T11:22:41;5.35;;;0.90;;
56427;SDS011;42331;53.578;9.760;2023-04-25T11:25:15;6.07;;;0.70;;
56427;SDS011;42331;53.578;9.760;2023-04-25T11:27:56;6.40;;;0.85;;
56427;SDS011;42331;53.578;9.760;2023-04-25T11:30:28;5.70;;;0.52;;
56427;SDS011;42331;53.578;9.760;2023-04-25T11:35:33;6.10;;;0.55;;
56427;SDS011;42331;53.578;9.760;2023-04-25T11:38:03;7.57;;;1.27;;
56427;SDS011;42331;53.578;9.760;2023-04-25T11:40:35;5.40;;;0.60;;
56427;SDS011;42331;53.578;9.760;2023-04-25T11:43:06;3.50;;;0.70;;
56427;SDS011;42331;53.578;9.760;2023-04-25T11:45:37;6.43;;;0.90;;
56427;SDS011;42331;53.578;9.760;2023-04-25T11:48:08;9.07;;;1.27;;
56427;SDS011;42331;53.578;9.760;2023-04-25T11:50:39;7.43;;;1.20;;
56427;SDS011;42331;53.578;9.760;2023-04-25T11:53:10;10.73;;;1.08;;
56427;SDS011;42331;53.578;9.760;2023-04-25T11:55:41;10.95;;;1.30;;
56427;SDS011;42331;53.578;9.760;2023-04-25T11:58:12;6.72;;;1.00;;
56427;SDS011;42331;53.578;9.760;2023-04-25T12:00:43;7.70;;;0.98;;
56427;SDS011;42331;53.578;9.760;2023-04-25T12:03:14;5.63;;;0.82;;
56427;SDS011;42331;53.578;9.760;2023-04-25T12:05:45;4.22;;;0.70;;
56427;SDS011;42331;53.578;9.760;2023-04-25T12:08:16;5.40;;;0.73;;
56427;SDS011;42331;53.578;9.760;2023-04-25T12:10:47;6.15;;;0.90;;
56427;SDS011;42331;53.578;9.760;2023-04-25T12:13:25;6.75;;;1.40;;
56427;SDS011;42331;53.578;9.760;2023-04-25T12:15:56;7.03;;;0.98;;
56427;SDS011;42331;53.578;9.760;2023-04-25T12:18:27;5.10;;;1.25;;
56427;SDS011;42331;53.578;9.760;2023-04-25T12:20:58;4.22;;;1.30;;
56427;SDS011;42331;53.578;9.760;2023-04-25T12:23:29;12.63;;;1.08;;
56427;SDS011;42331;53.578;9.760;2023-04-25T12:26:00;9.43;;;1.40;;
56427;SDS011;42331;53.578;9.760;2023-04-25T12:28:32;5.40;;;0.73;;
56427;SDS011;42331;53.578;9.760;2023-04-25T12:31:07;7.05;;;0.90;;
56427;SDS011;42331;53.578;9.760;2023-04-25T12:33:38;9.15;;;1.10;;
56427;SDS011;42331;53.578;9.760;2023-04-25T12:36:10;5.30;;;0.73;;
56427;SDS011;42331;53.578;9.760;2023-04-25T12:38:42;5.40;;;1.30;;
56427;SDS011;42331;53.578;9.760;2023-04-25T12:41:13;8.73;;;1.17;;
56427;SDS011;42331;53.578;9.760;2023-04-25T12:43:44;6.90;;;1.45;;
56427;SDS011;42331;53.578;9.760;2023-04-25T12:46:15;8.57;;;1.48;;
56427;SDS011;42331;53.578;9.760;2023-04-25T12:48:45;11.35;;;1.52;;
56427;SDS011;42331;53.578;9.760;2023-04-25T12:51:16;5.88;;;1.15;;
56427;SDS011;42331;53.578;9.760;2023-04-25T12:53:47;8.10;;;1.00;;
56427;SDS011;42331;53.578;9.760;2023-04-25T12:56:18;7.38;;;1.20;;
56427;SDS011;42331;53.578;9.760;2023-04-25T12:58:49;6.70;;;1.35;;
56427;SDS011;42331;53.578;9.760;2023-04-25T13:01:20;8.27;;;1.38;;
56427;SDS011;42331;53.578;9.760;2023-04-25T13:03:51;8.55;;;1.17;;
56427;SDS011;42331;53.578;9.760;2023-04-25T13:06:22;4.40;;;0.77;;
56427;SDS011;42331;53.578;9.760;2023-04-25T13:08:53;4.10;;;0.85;;
56427;SDS011;42331;53.578;9.760;2023-04-25T13:11:24;6.43;;;0.80;;
56427;SDS011;42331;53.578;9.760;2023-04-25T13:13:55;6.88;;;1.00;;
56427;SDS011;42331;53.578;9.760;2023-04-25T13:16:26;6.22;;;1.20;;
56427;SDS011;42331;53.578;9.760;2023-04-25T13:18:57;6.78;;;1.00;;
56427;SDS011;42331;53.578;9.760;2023-04-25T13:21:30;7.68;;;1.55;;
56427;SDS011;42331;53.578;9.760;2023-04-25T13:24:02;5.88;;;0.90;;
56427;SDS011;42331;53.578;9.760;2023-04-25T13:26:33;5.03;;;0.73;;
56427;SDS011;42331;53.578;9.760;2023-04-25T13:29:04;6.68;;;1.00;;
56427;SDS011;42331;53.578;9.760;2023-04-25T13:31:35;5.68;;;0.98;;
56427;SDS011;42331;53.578;9.760;2023-04-25T13:34:05;8.73;;;1.30;;
56427;SDS011;42331;53.578;9.760;2023-04-25T13:36:36;10.40;;;1.13;;
56427;SDS011;42331;53.578;9.760;2023-04-25T13:39:07;9.85;;;0.93;;
56427;SDS011;42331;53.578;9.760;2023-04-25T13:41:38;7.70;;;1.00;;
56427;SDS011;42331;53.578;9.760;2023-04-25T13:44:08;4.40;;;1.02;;
56427;SDS011;42331;53.578;9.760;2023-04-25T13:46:40;10.50;;;1.48;;
56427;SDS011;42331;53.578;9.760;2023-04-25T13:49:11;6.47;;;1.10;;
56427;SDS011;42331;53.578;9.760;2023-04-25T13:51:42;10.65;;;1.13;;
56427;SDS011;42331;53.578;9.760;2023-04-25T13:54:12;12.95;;;1.67;;
56427;SDS011;42331;53.578;9.760;2023-04-25T13:56:43;9.50;;;1.35;;
56427;SDS011;42331;53.578;9.760;2023-04-25T13:59:14;20.55;;;2.17;;
56427;SDS011;42331;53.578;9.760;2023-04-25T14:01:45;14.68;;;1.70;;
56427;SDS011;42331;53.578;9.760;2023-04-25T14:04:15;11.63;;;1.67;;
56427;SDS011;42331;53.578;9.760;2023-04-25T14:06:46;9.20;;;1.50;;
56427;SDS011;42331;53.578;9.760;2023-04-25T14:09:18;6.65;;;1.30;;
56427;SDS011;42331;53.578;9.760;2023-04-25T14:11:51;4.95;;;1.13;;
56427;SDS011;42331;53.578;9.760;2023-04-25T14:16:53;9.18;;;1.80;;
56427;SDS011;42331;53.578;9.760;2023-04-25T14:19:24;4.37;;;1.13;;
56427;SDS011;42331;53.578;9.760;2023-04-25T14:21:55;10.93;;;2.38;;
56427;SDS011;42331;53.578;9.760;2023-04-25T14:24:26;6.75;;;1.08;;
56427;SDS011;42331;53.578;9.760;2023-04-25T14:27:00;9.63;;;1.95;;
56427;SDS011;42331;53.578;9.760;2023-04-25T14:29:31;8.63;;;1.20;;
56427;SDS011;42331;53.578;9.760;2023-04-25T14:32:02;9.13;;;1.50;;
56427;SDS011;42331;53.578;9.760;2023-04-25T14:34:33;11.05;;;1.30;;
56427;SDS011;42331;53.578;9.760;2023-04-25T14:37:03;7.00;;;0.88;;
56427;SDS011;42331;53.578;9.760;2023-04-25T14:39:34;8.20;;;1.27;;
56427;SDS011;42331;53.578;9.760;2023-04-25T14:42:05;6.18;;;1.10;;
56427;SDS011;42331;53.578;9.760;2023-04-25T14:44:36;10.55;;;1.40;;
56427;SDS011;42331;53.578;9.760;2023-04-25T14:47:06;11.48;;;1.50;;
56427;SDS011;42331;53.578;9.760;2023-04-25T14:49:37;9.85;;;1.60;;
56427;SDS011;42331;53.578;9.760;2023-04-25T14:52:08;10.15;;;1.02;;
56427;SDS011;42331;53.578;9.760;2023-04-25T14:54:39;5.40;;;0.80;;
56427;SDS011;42331;53.578;9.760;2023-04-25T14:57:10;10.80;;;1.10;;
56427;SDS011;42331;53.578;9.760;2023-04-25T14:59:41;7.97;;;1.60;;
56427;SDS011;42331;53.578;9.760;2023-04-25T15:02:12;8.32;;;1.52;;
56427;SDS011;42331;53.578;9.760;2023-04-25T15:04:43;8.38;;;1.10;;
56427;SDS011;42331;53.578;9.760;2023-04-25T15:07:13;11.10;;;1.55;;
56427;SDS011;42331;53.578;9.760;2023-04-25T15:09:45;11.25;;;1.42;;
56427;SDS011;42331;53.578;9.760;2023-04-25T15:12:18;7.53;;;1.20;;
56427;SDS011;42331;53.578;9.760;2023-04-25T15:14:51;9.52;;;1.27;;
56427;SDS011;42331;53.578;9.760;2023-04-25T15:17:22;5.80;;;1.20;;
56427;SDS011;42331;53.578;9.760;2023-04-25T15:19:52;6.72;;;1.17;;
56427;SDS011;42331;53.578;9.760;2023-04-25T15:22:24;7.85;;;1.40;;